Time;durP1;ratioP1;P1;durP2;ratioP2;P2;SDS_P1;SDS_P2;PMS_P1;PMS_P2;Temp;Humidity;BMP_temperature;BMP_pressure;BME280_temperature;BME280_humidity;BME280_pressure;Samples;Min_cycle;Max_cycle;Signal;HPM_P1;HPM_P2
2023/10/18 00:00:15;;;;;;;27.63;18.40;;;;;;;;;;5131756;27;20061;-66
2023/10/18 00:02:44;;;;;;;25.73;17.52;;;;;;;;;;5133512;27;20084;-66
2023/10/18 00:05:10;;;;;;;28.23;18.27;;;;;;;;;;5135650;27;20046;-66
2023/10/18 00:07:37;;;;;;;23.63;17.20;;;;;;;;;;5134181;27;20016;-66
2023/10/18 00:10:04;;;;;;;25.05;17.17;;;;;;;;;;5135357;27;20034;-66
2023/10/18 00:12:33;;;;;;;27.20;18.98;;;;;;;;;;5134486;27;20355;-67
2023/10/18 00:14:59;;;;;;;31.48;19.85;;;;;;;;;;5134937;27;20039;-66
2023/10/18 00:17:26;;;;;;;33.10;20.00;;;;;;;;;;5134636;27;20019;-66
2023/10/18 00:19:52;;;;;;;31.27;19.23;;;;;;;;;;5134134;27;20012;-66
2023/10/18 00:22:18;;;;;;;30.45;20.83;;;;;;;;;;5134532;27;20015;-66
2023/10/18 00:24:44;;;;;;;30.13;19.02;;;;;;;;;;5134395;27;20029;-66
2023/10/18 00:27:10;;;;;;;31.52;20.27;;;;;;;;;;5116179;27;20023;-66
2023/10/18 00:29:36;;;;;;;33.72;19.73;;;;;;;;;;5133948;27;20072;-66
2023/10/18 00:32:03;;;;;;;33.45;20.52;;;;;;;;;;5133771;27;20030;-66
2023/10/18 00:34:29;;;;;;;36.22;21.80;;;;;;;;;;5134205;27;20463;-68
2023/10/18 00:36:56;;;;;;;31.85;18.95;;;;;;;;;;5133809;27;20011;-66
2023/10/18 00:39:32;;;;;;;34.58;20.13;;;;;;;;;;5134709;27;20399;-66
2023/10/18 00:42:23;;;;;;;35.45;20.38;;;;;;;;;;5133970;27;20047;-66
2023/10/18 00:44:52;;;;;;;32.53;19.67;;;;;;;;;;5133483;27;20057;-66
2023/10/18 00:47:18;;;;;;;31.80;20.20;;;;;;;;;;5134330;27;20042;-65
2023/10/18 00:49:44;;;;;;;33.75;21.13;;;;;;;;;;5133598;27;20042;-65
2023/10/18 00:52:10;;;;;;;34.13;21.38;;;;;;;;;;5134107;27;20038;-65
2023/10/18 00:54:38;;;;;;;33.47;20.70;;;;;;;;;;5133374;27;20038;-65
2023/10/18 00:57:04;;;;;;;30.00;21.02;;;;;;;;;;5124059;27;20010;-66
2023/10/18 00:59:30;;;;;;;31.95;20.48;;;;;;;;;;5134181;27;20015;-67
2023/10/18 01:02:05;;;;;;;25.98;18.73;;;;;;;;;;5123613;27;20023;-66
2023/10/18 01:04:34;;;;;;;27.40;18.02;;;;;;;;;;5131661;27;20146;-67
2023/10/18 01:07:11;;;;;;;29.58;19.30;;;;;;;;;;5129864;27;20069;-66
2023/10/18 01:09:37;;;;;;;31.52;19.35;;;;;;;;;;5123745;27;20015;-65
2023/10/18 01:12:04;;;;;;;29.60;20.10;;;;;;;;;;5133642;27;20027;-66
2023/10/18 01:14:31;;;;;;;28.60;19.50;;;;;;;;;;5132988;27;20217;-67
2023/10/18 01:16:58;;;;;;;35.30;22.50;;;;;;;;;;5133614;27;20041;-66
2023/10/18 01:19:24;;;;;;;33.90;22.63;;;;;;;;;;5133904;27;20478;-66
2023/10/18 01:21:51;;;;;;;31.73;21.25;;;;;;;;;;5132878;27;20772;-65
2023/10/18 01:24:18;;;;;;;32.03;20.92;;;;;;;;;;5133640;27;20025;-65
2023/10/18 01:26:45;;;;;;;33.05;20.85;;;;;;;;;;5132994;27;20084;-66
2023/10/18 01:29:11;;;;;;;30.80;20.17;;;;;;;;;;5133407;27;20451;-65
2023/10/18 01:31:45;;;;;;;33.63;21.85;;;;;;;;;;5132369;27;20027;-66
2023/10/18 01:34:11;;;;;;;35.83;22.58;;;;;;;;;;5128035;27;20055;-65
2023/10/18 01:36:39;;;;;;;30.98;20.65;;;;;;;;;;5132778;27;20016;-65
2023/10/18 01:39:18;;;;;;;28.45;19.88;;;;;;;;;;5133309;27;20346;-66
2023/10/18 01:41:45;;;;;;;32.72;21.40;;;;;;;;;;5132828;27;20502;-66
2023/10/18 01:44:17;;;;;;;31.38;21.50;;;;;;;;;;5132984;27;20379;-65
2023/10/18 01:46:46;;;;;;;29.55;20.27;;;;;;;;;;5132710;27;20019;-67
2023/10/18 01:49:24;;;;;;;31.65;21.05;;;;;;;;;;5133084;27;20007;-67
2023/10/18 01:51:52;;;;;;;29.42;19.05;;;;;;;;;;5132483;27;20106;-67
2023/10/18 01:54:18;;;;;;;30.85;19.65;;;;;;;;;;5132071;27;20403;-67
2023/10/18 01:56:48;;;;;;;30.10;20.23;;;;;;;;;;5132579;27;20401;-66
2023/10/18 01:59:16;;;;;;;29.35;19.83;;;;;;;;;;5132774;27;20039;-66
2023/10/18 02:01:44;;;;;;;34.88;21.77;;;;;;;;;;5124000;27;20014;-66
2023/10/18 02:04:19;;;;;;;32.40;20.58;;;;;;;;;;5127775;27;20050;-66
2023/10/18 02:06:47;;;;;;;39.15;22.52;;;;;;;;;;5132288;27;20019;-67
2023/10/18 02:09:14;;;;;;;34.17;23.80;;;;;;;;;;5132300;27;20099;-66
2023/10/18 02:11:40;;;;;;;34.42;22.60;;;;;;;;;;5132077;27;20524;-66
2023/10/18 02:14:08;;;;;;;35.10;22.65;;;;;;;;;;5132357;27;20043;-66
2023/10/18 02:16:34;;;;;;;32.65;21.75;;;;;;;;;;5132965;27;20038;-67
2023/10/18 02:19:00;;;;;;;34.17;22.73;;;;;;;;;;5131875;27;20011;-66
2023/10/18 02:21:26;;;;;;;38.28;23.33;;;;;;;;;;5132960;27;20011;-66
2023/10/18 02:23:52;;;;;;;38.08;24.00;;;;;;;;;;5131121;27;20463;-66
2023/10/18 02:26:31;;;;;;;36.22;24.45;;;;;;;;;;5132976;27;20023;-66
2023/10/18 02:28:59;;;;;;;34.92;23.75;;;;;;;;;;5130792;27;20063;-66
2023/10/18 02:31:25;;;;;;;40.92;24.40;;;;;;;;;;5132043;27;20012;-67
2023/10/18 02:33:54;;;;;;;41.63;25.42;;;;;;;;;;5131162;27;20079;-67
2023/10/18 02:36:32;;;;;;;39.38;25.33;;;;;;;;;;5128696;27;20031;-66
2023/10/18 02:38:59;;;;;;;38.65;24.75;;;;;;;;;;5120015;27;20011;-67
2023/10/18 02:41:28;;;;;;;38.42;24.45;;;;;;;;;;5132045;27;20019;-66
2023/10/18 02:43:55;;;;;;;37.88;24.58;;;;;;;;;;5130425;27;20157;-65
2023/10/18 02:46:24;;;;;;;41.33;26.08;;;;;;;;;;5131712;27;20379;-66
2023/10/18 02:48:51;;;;;;;44.45;27.30;;;;;;;;;;5129678;27;20011;-65
2023/10/18 02:51:24;;;;;;;44.78;25.90;;;;;;;;;;5128854;27;20624;-66
2023/10/18 02:53:54;;;;;;;37.95;25.05;;;;;;;;;;5128100;27;20106;-66
2023/10/18 02:56:20;;;;;;;36.20;23.75;;;;;;;;;;5129538;27;20019;-65
2023/10/18 02:58:50;;;;;;;38.53;23.67;;;;;;;;;;5130292;27;20052;-65
2023/10/18 03:01:19;;;;;;;38.08;24.40;;;;;;;;;;5131633;27;20007;-65
2023/10/18 03:03:54;;;;;;;36.85;23.55;;;;;;;;;;5130410;27;20023;-65
2023/10/18 03:06:24;;;;;;;37.80;23.25;;;;;;;;;;5129194;27;20371;-69
2023/10/18 03:08:50;;;;;;;42.42;23.90;;;;;;;;;;5126345;27;20098;-65
2023/10/18 03:11:20;;;;;;;41.85;24.10;;;;;;;;;;5131769;27;20347;-66
2023/10/18 03:13:46;;;;;;;35.17;22.35;;;;;;;;;;5129927;28;20050;-66
2023/10/18 03:18:44;;;;;;;36.50;22.58;;;;;;;;;;5129951;28;20043;-66
2023/10/18 03:21:13;;;;;;;36.40;23.17;;;;;;;;;;5131676;28;20031;-65
2023/10/18 03:23:46;;;;;;;33.25;21.15;;;;;;;;;;5127663;28;20027;-66
2023/10/18 03:26:12;;;;;;;34.03;22.58;;;;;;;;;;5131296;28;20020;-65
2023/10/18 03:28:43;;;;;;;34.97;20.73;;;;;;;;;;5130097;28;20025;-66
2023/10/18 03:31:27;;;;;;;35.55;22.73;;;;;;;;;;5130975;27;20019;-65
2023/10/18 03:34:04;;;;;;;40.25;25.58;;;;;;;;;;5115074;28;20028;-65
2023/10/18 03:36:35;;;;;;;38.35;25.13;;;;;;;;;;5133314;27;20042;-67
2023/10/18 03:39:10;;;;;;;39.85;24.80;;;;;;;;;;5132559;27;20018;-65
2023/10/18 03:41:40;;;;;;;36.55;23.13;;;;;;;;;;5134393;27;20443;-66
2023/10/18 03:44:06;;;;;;;33.97;22.88;;;;;;;;;;5135018;27;20022;-66
2023/10/18 03:46:39;;;;;;;36.40;22.98;;;;;;;;;;5134502;27;20090;-67
2023/10/18 03:49:10;;;;;;;36.13;23.00;;;;;;;;;;5133262;27;20060;-65
2023/10/18 03:51:37;;;;;;;38.35;23.08;;;;;;;;;;5116097;27;20367;-66
2023/10/18 03:54:04;;;;;;;38.63;24.63;;;;;;;;;;5132154;27;20015;-65
2023/10/18 03:56:36;;;;;;;39.97;24.27;;;;;;;;;;5134529;27;20340;-67
2023/10/18 03:59:09;;;;;;;42.08;25.48;;;;;;;;;;5132519;27;20026;-66
2023/10/18 04:02:02;;;;;;;39.72;25.90;;;;;;;;;;5134245;27;20023;-67
2023/10/18 04:04:21;;;;;;;44.05;26.25;;;;;;;;;;5132448;27;20023;-66
2023/10/18 04:06:53;;;;;;;44.55;26.80;;;;;;;;;;5134391;27;20060;-65
2023/10/18 04:09:23;;;;;;;40.15;25.83;;;;;;;;;;5132624;27;20012;-65
2023/10/18 04:11:49;;;;;;;48.08;26.98;;;;;;;;;;5134146;27;20016;-66
2023/10/18 04:14:16;;;;;;;42.25;26.77;;;;;;;;;;5133946;27;20039;-65
2023/10/18 04:16:42;;;;;;;46.42;26.15;;;;;;;;;;5133869;27;20023;-65
2023/10/18 04:19:09;;;;;;;44.95;25.60;;;;;;;;;;5134099;27;20034;-65
2023/10/18 04:21:35;;;;;;;43.30;25.80;;;;;;;;;;5133995;27;20102;-67
2023/10/18 04:24:04;;;;;;;38.63;24.80;;;;;;;;;;5133954;27;20352;-66
2023/10/18 04:26:30;;;;;;;36.45;24.02;;;;;;;;;;5134505;27;20456;-67
2023/10/18 04:29:04;;;;;;;39.40;24.17;;;;;;;;;;5133440;27;20018;-66
2023/10/18 04:31:32;;;;;;;37.78;23.73;;;;;;;;;;5133932;27;20015;-68
2023/10/18 04:33:58;;;;;;;38.63;23.35;;;;;;;;;;5133530;27;20007;-66
2023/10/18 04:36:24;;;;;;;40.08;23.98;;;;;;;;;;5134497;27;20022;-67
2023/10/18 04:38:51;;;;;;;40.13;24.55;;;;;;;;;;5126864;27;20030;-66
2023/10/18 04:41:24;;;;;;;42.50;26.58;;;;;;;;;;5132145;27;20585;-69
2023/10/18 04:46:47;;;;;;;41.85;25.80;;;;;;;;;;5132322;27;20030;-66
2023/10/18 04:49:22;;;;;;;41.83;25.60;;;;;;;;;;5133659;27;20020;-66
2023/10/18 04:51:48;;;;;;;38.75;24.48;;;;;;;;;;5132223;27;20015;-67
2023/10/18 04:54:18;;;;;;;42.00;26.75;;;;;;;;;;5130686;27;20015;-66
2023/10/18 04:56:45;;;;;;;44.33;26.67;;;;;;;;;;5133013;27;20124;-66
2023/10/18 05:04:32;;;;;;;40.70;23.77;;;;;;;;;;5134306;27;20026;-66
2023/10/18 05:07:04;;;;;;;42.03;25.63;;;;;;;;;;5125164;27;20011;-67
2023/10/18 05:09:45;;;;;;;40.92;25.30;;;;;;;;;;5134194;27;20019;-68
2023/10/18 05:12:42;;;;;;;44.25;25.70;;;;;;;;;;5133627;27;20050;-65
2023/10/18 05:15:16;;;;;;;42.65;23.55;;;;;;;;;;5123388;27;20039;-66
2023/10/18 05:17:42;;;;;;;38.33;24.23;;;;;;;;;;5132805;27;20466;-65
2023/10/18 05:23:05;;;;;;;43.80;25.05;;;;;;;;;;5089381;27;20019;-65
2023/10/18 05:25:34;;;;;;;42.35;25.67;;;;;;;;;;5133567;27;20019;-67
2023/10/18 05:28:09;;;;;;;45.92;27.20;;;;;;;;;;5133207;27;20139;-65
2023/10/18 05:36:29;;;;;;;49.55;27.52;;;;;;;;;;5134222;27;20035;-66
2023/10/18 05:38:55;;;;;;;45.90;27.17;;;;;;;;;;5132822;27;20038;-66
2023/10/18 05:41:28;;;;;;;51.00;30.10;;;;;;;;;;5133044;27;20035;-67
2023/10/18 05:44:01;;;;;;;51.83;30.25;;;;;;;;;;5132164;27;20158;-67
2023/10/18 05:46:27;;;;;;;52.15;28.90;;;;;;;;;;5133178;27;20030;-66
2023/10/18 05:48:55;;;;;;;48.63;29.65;;;;;;;;;;5132240;27;20503;-66
2023/10/18 05:53:51;;;;;;;55.47;30.40;;;;;;;;;;5121397;27;20059;-67
2023/10/18 05:56:22;;;;;;;50.60;29.95;;;;;;;;;;5130019;27;20451;-66
2023/10/18 05:59:15;;;;;;;47.53;29.25;;;;;;;;;;5122115;27;20019;-66
2023/10/18 06:01:34;;;;;;;47.22;28.88;;;;;;;;;;5131558;27;20030;-66
2023/10/18 06:04:00;;;;;;;53.15;29.98;;;;;;;;;;5132802;27;20015;-69
2023/10/18 06:06:26;;;;;;;50.65;30.95;;;;;;;;;;5127764;27;20035;-65
2023/10/18 06:08:57;;;;;;;47.78;27.15;;;;;;;;;;5130686;27;20577;-66
2023/10/18 06:11:23;;;;;;;49.60;30.17;;;;;;;;;;5121528;27;20026;-65
2023/10/18 06:13:49;;;;;;;47.65;29.77;;;;;;;;;;5131824;27;20114;-67
2023/10/18 06:16:18;;;;;;;47.53;29.17;;;;;;;;;;5132704;27;20023;-65
2023/10/18 06:18:45;;;;;;;48.10;29.35;;;;;;;;;;5130701;27;20045;-64
2023/10/18 06:21:18;;;;;;;47.65;28.33;;;;;;;;;;5132534;27;20011;-65
2023/10/18 06:23:54;;;;;;;54.45;31.67;;;;;;;;;;5131122;27;20420;-64
2023/10/18 06:26:30;;;;;;;45.30;28.58;;;;;;;;;;5133247;27;20019;-65
2023/10/18 06:29:02;;;;;;;45.03;27.83;;;;;;;;;;5131220;27;20470;-65
2023/10/18 06:31:31;;;;;;;47.25;28.13;;;;;;;;;;5126427;27;20019;-65
2023/10/18 06:34:04;;;;;;;48.90;29.37;;;;;;;;;;5130546;27;20019;-65
2023/10/18 06:36:33;;;;;;;48.58;29.83;;;;;;;;;;5131196;27;20289;-67
2023/10/18 06:38:59;;;;;;;52.47;29.77;;;;;;;;;;5131479;27;20049;-65
2023/10/18 06:41:29;;;;;;;46.45;30.38;;;;;;;;;;5132259;27;20007;-65
2023/10/18 06:43:58;;;;;;;49.83;27.43;;;;;;;;;;5130192;27;20526;-64
2023/10/18 06:46:27;;;;;;;48.55;30.35;;;;;;;;;;5131819;27;20037;-65
2023/10/18 06:48:59;;;;;;;45.28;28.98;;;;;;;;;;5130473;27;20016;-66
2023/10/18 06:51:31;;;;;;;43.05;28.02;;;;;;;;;;5132139;27;20098;-67
2023/10/18 06:54:07;;;;;;;40.88;26.27;;;;;;;;;;5130945;27;20043;-65
2023/10/18 06:56:39;;;;;;;40.72;26.30;;;;;;;;;;5130779;27;20472;-66
2023/10/18 06:59:07;;;;;;;37.90;24.50;;;;;;;;;;5131499;27;20064;-64
2023/10/18 07:01:33;;;;;;;36.10;23.83;;;;;;;;;;5131559;27;20023;-66
2023/10/18 07:04:00;;;;;;;33.72;22.67;;;;;;;;;;5131050;27;20033;-65
2023/10/18 07:06:29;;;;;;;33.97;24.75;;;;;;;;;;5131500;27;20128;-65
2023/10/18 07:08:55;;;;;;;36.65;23.77;;;;;;;;;;5130579;27;20015;-65
2023/10/18 07:11:23;;;;;;;33.47;22.83;;;;;;;;;;5131550;27;20109;-65
2023/10/18 07:13:53;;;;;;;36.28;22.42;;;;;;;;;;5129593;27;20120;-65
2023/10/18 07:21:42;;;;;;;31.35;21.17;;;;;;;;;;5122750;28;20371;-65
2023/10/18 07:24:12;;;;;;;32.17;22.13;;;;;;;;;;5130881;28;20030;-65
2023/10/18 07:26:39;;;;;;;29.60;21.52;;;;;;;;;;5130746;28;20023;-65
2023/10/18 07:29:08;;;;;;;27.67;20.55;;;;;;;;;;5130800;28;20042;-65
2023/10/18 07:31:46;;;;;;;30.45;20.58;;;;;;;;;;5128326;28;20486;-65
2023/10/18 07:34:25;;;;;;;32.95;20.35;;;;;;;;;;5125327;28;20022;-65
2023/10/18 07:36:54;;;;;;;37.60;21.45;;;;;;;;;;5128584;28;20042;-65
2023/10/18 07:39:24;;;;;;;32.78;21.77;;;;;;;;;;5131061;28;20525;-65
2023/10/18 07:41:50;;;;;;;29.85;20.27;;;;;;;;;;5130560;28;20045;-65
2023/10/18 07:44:16;;;;;;;28.63;20.10;;;;;;;;;;5126048;28;20015;-65
2023/10/18 07:46:42;;;;;;;29.20;20.52;;;;;;;;;;5130224;28;20031;-65
2023/10/18 07:49:14;;;;;;;30.65;20.20;;;;;;;;;;5126684;28;20157;-65
2023/10/18 07:51:48;;;;;;;31.10;21.27;;;;;;;;;;5130682;28;20388;-65
2023/10/18 07:54:14;;;;;;;30.80;20.98;;;;;;;;;;5130124;28;20042;-66
2023/10/18 07:56:48;;;;;;;33.00;20.95;;;;;;;;;;5130576;28;20037;-65
2023/10/18 07:59:30;;;;;;;31.30;20.27;;;;;;;;;;5130642;28;20122;-65
2023/10/18 08:04:42;;;;;;;34.50;20.55;;;;;;;;;;5130168;28;20031;-64
2023/10/18 08:07:12;;;;;;;31.80;21.00;;;;;;;;;;5130831;28;20007;-65
2023/10/18 08:09:41;;;;;;;32.53;21.13;;;;;;;;;;5120813;28;20099;-65
2023/10/18 08:12:08;;;;;;;34.75;21.45;;;;;;;;;;5124422;28;20016;-65
2023/10/18 08:14:35;;;;;;;30.30;20.42;;;;;;;;;;5124686;28;20471;-66
2023/10/18 08:17:28;;;;;;;34.90;21.30;;;;;;;;;;5130114;28;20059;-66
2023/10/18 08:20:29;;;;;;;32.50;19.90;;;;;;;;;;5123194;28;20015;-66
2023/10/18 08:22:44;;;;;;;35.28;20.38;;;;;;;;;;5131675;27;20015;-66
2023/10/18 08:25:21;;;;;;;33.58;19.58;;;;;;;;;;5134852;27;20072;-66
2023/10/18 08:27:48;;;;;;;30.08;19.40;;;8.40;99.90;;;;;;5133636;27;20019;-66
2023/10/18 08:30:23;;;;;;;31.42;18.95;;;8.60;99.90;;;;;;5134712;27;20423;-66
2023/10/18 08:32:52;;;;;;;38.35;20.13;;;8.50;99.90;;;;;;5130042;27;20028;-66
2023/10/18 08:35:21;;;;;;;33.65;19.63;;;8.60;99.90;;;;;;5134779;27;20081;-66
2023/10/18 08:37:47;;;;;;;32.35;20.05;;;8.70;99.90;;;;;;5133241;27;20027;-66
2023/10/18 08:43:09;;;;;;;34.03;18.38;;;8.90;99.90;;;;;;5123790;27;20019;-66
2023/10/18 08:45:45;;;;;;;30.65;18.13;;;9.00;99.90;;;;;;5133502;27;20027;-67
2023/10/18 08:48:16;;;;;;;27.75;18.83;;;9.00;99.90;;;;;;5133187;27;20102;-66
2023/10/18 08:50:41;;;;;;;;;;;9.00;99.90;;;;;;5133999;27;20035;-66
2023/10/18 08:53:09;;;;;;;34.15;17.63;;;9.00;99.90;;;;;;5133893;27;20305;-66
2023/10/18 08:55:44;;;;;;;29.35;18.05;;;9.10;99.90;;;;;;5133707;27;20038;-67
2023/10/18 08:58:17;;;;;;;27.88;17.75;;;9.10;99.90;;;;;;5133629;27;20110;-66
2023/10/18 09:03:14;;;;;;;31.65;21.05;;;9.20;99.90;;;;;;5133706;27;20019;-66
2023/10/18 09:05:40;;;;;;;32.55;19.85;;;9.40;99.90;;;;;;5133271;27;20027;-66
2023/10/18 09:08:14;;;;;;;25.27;17.67;;;9.50;99.90;;;;;;5133471;27;20102;-66
2023/10/18 09:10:46;;;;;;;30.40;18.70;;;9.60;99.90;;;;;;5133109;27;20102;-66
2023/10/18 09:15:54;;;;;;;25.48;18.08;;;9.90;99.90;;;;;;5125926;27;20047;-66
2023/10/18 09:18:24;;;;;;;29.23;19.98;;;10.00;99.90;;;;;;5133207;27;20022;-66
2023/10/18 09:20:51;;;;;;;32.38;19.48;;;10.00;99.90;;;;;;5131824;27;20034;-66
2023/10/18 09:23:21;;;;;;;30.70;20.05;;;10.10;99.90;;;;;;5133314;27;20030;-65
2023/10/18 09:25:49;;;;;;;34.55;20.08;;;10.10;99.90;;;;;;5132961;27;20027;-65
2023/10/18 09:28:25;;;;;;;30.95;19.23;;;10.20;99.90;;;;;;5132858;27;20479;-65
2023/10/18 09:31:00;;;;;;;32.78;20.17;;;10.30;99.90;;;;;;5120377;27;20064;-65
2023/10/18 09:33:32;;;;;;;33.00;20.20;;;10.40;99.90;;;;;;5132449;27;20091;-65
2023/10/18 09:36:02;;;;;;;34.08;19.63;;;10.50;99.90;;;;;;5133100;27;20035;-63
2023/10/18 09:38:39;;;;;;;33.38;20.90;;;10.50;99.90;;;;;;5132413;27;20058;-65
2023/10/18 09:41:05;;;;;;;33.50;19.00;;;10.60;99.90;;;;;;5133033;27;20068;-64
2023/10/18 09:43:32;;;;;;;32.40;19.85;;;10.60;99.90;;;;;;5129881;27;20023;-66
2023/10/18 09:45:59;;;;;;;28.33;18.42;;;10.60;99.90;;;;;;5132775;27;20027;-64
2023/10/18 09:48:26;;;;;;;33.40;19.33;;;10.70;99.90;;;;;;5128773;27;20050;-65
2023/10/18 09:50:53;;;;;;;24.55;16.95;;;10.80;99.90;;;;;;5132689;27;20023;-65
2023/10/18 09:53:25;;;;;;;30.23;18.85;;;10.90;99.90;;;;;;5132456;27;20015;-66
2023/10/18 09:55:53;;;;;;;33.65;19.27;;;11.00;99.90;;;;;;5132080;27;20088;-65
2023/10/18 09:58:19;;;;;;;25.92;19.00;;;11.20;99.90;;;;;;5132612;27;20023;-66
2023/10/18 10:00:56;;;;;;;31.33;18.67;;;11.20;99.90;;;;;;5124940;27;20072;-65
2023/10/18 10:03:25;;;;;;;28.38;17.55;;;11.30;99.90;;;;;;5132539;27;20007;-65
2023/10/18 10:05:52;;;;;;;33.03;17.65;;;11.30;99.90;;;;;;5132121;27;20599;-64
2023/10/18 10:08:19;;;;;;;30.35;16.55;;;11.30;99.90;;;;;;5132770;27;20474;-69
2023/10/18 10:10:49;;;;;;;36.42;16.33;;;11.30;99.90;;;;;;5131660;27;20038;-67
2023/10/18 10:13:19;;;;;;;29.50;14.75;;;11.30;99.90;;;;;;5128037;27;20042;-66
2023/10/18 10:15:48;;;;;;;28.83;16.63;;;11.50;99.90;;;;;;5129149;27;20033;-66
2023/10/18 10:18:16;;;;;;;24.42;14.57;;;11.60;99.90;;;;;;5122943;27;20027;-65
2023/10/18 10:20:46;;;;;;;23.63;16.08;;;;;;;;;;5131332;27;20751;-65
2023/10/18 10:23:15;;;;;;;25.65;15.73;;;11.90;99.90;;;;;;5131786;27;20475;-65
2023/10/18 10:25:48;;;;;;;28.23;17.42;;;12.00;99.90;;;;;;5131708;27;20544;-65
2023/10/18 10:31:58;;;;;;;26.85;15.10;;;12.20;99.90;;;;;;5129606;27;20019;-66
2023/10/18 10:34:28;;;;;;;27.35;15.65;;;12.30;99.90;;;;;;5128502;27;20038;-65
2023/10/18 10:37:05;;;;;;;24.05;16.15;;;12.50;99.90;;;;;;5131192;27;20491;-65
2023/10/18 10:39:32;;;;;;;23.75;15.65;;;12.80;99.90;;;;;;5132239;27;20023;-66
2023/10/18 10:44:57;;;;;;;19.92;15.23;;;13.20;99.90;;;;;;5116990;27;20117;-66
2023/10/18 10:47:32;;;;;;;28.93;16.20;;;;;;;;;;5131290;27;20088;-66
2023/10/18 10:50:01;;;;;;;24.05;15.40;;;13.60;99.90;;;;;;5131747;27;20317;-66
2023/10/18 10:52:31;;;;;;;25.92;15.90;;;13.90;99.90;;;;;;5131049;27;20023;-66
2023/10/18 10:55:16;;;;;;;20.95;14.45;;;14.20;99.90;;;;;;5131297;27;20035;-66
2023/10/18 10:57:45;;;;;;;26.50;14.57;;;;;;;;;;5130567;27;20049;-66
2023/10/18 11:03:06;;;;;;;22.48;14.88;;;14.60;99.90;;;;;;5130291;27;20046;-66
2023/10/18 11:05:37;;;;;;;17.88;13.68;;;;;;;;;;5131406;27;20038;-66
2023/10/18 11:08:07;;;;;;;20.35;14.95;;;;;;;;;;5131095;27;20043;-66
2023/10/18 11:10:39;;;;;;;19.77;14.07;;;;;;;;;;5131162;27;20034;-66
2023/10/18 11:13:08;;;;;;;18.88;12.82;;;;;;;;;;5128660;27;20016;-66
2023/10/18 11:15:41;;;;;;;16.83;11.52;;;;;;;;;;5130573;27;20125;-67
2023/10/18 11:18:17;;;;;;;20.95;12.30;;;;;;;;;;5122589;28;20031;-66
2023/10/18 11:20:49;;;;;;;21.27;12.88;;;;;;;;;;5130350;28;20054;-66
2023/10/18 11:23:15;;;;;;;17.52;12.15;;;;;;;;;;5131201;28;20023;-65
2023/10/18 11:25:45;;;;;;;16.55;11.40;;;;;;;;;;5131128;28;20071;-65
2023/10/18 11:28:28;;;;;;;20.02;13.18;;;;;;;;;;5130907;28;20030;-65
2023/10/18 11:30:56;;;;;;;17.90;10.85;;;;;;;;;;5118294;28;20416;-65
2023/10/18 11:33:32;;;;;;;18.95;12.70;;;;;;;;;;5130573;28;20045;-65
2023/10/18 11:36:02;;;;;;;17.38;11.75;;;;;;;;;;5131199;28;20098;-66
2023/10/18 11:38:33;;;;;;;21.45;14.65;;;;;;;;;;5130756;28;20034;-66
2023/10/18 11:41:04;;;;;;;20.40;13.18;;;;;;;;;;5131863;28;20013;-66
2023/10/18 11:43:39;;;;;;;16.38;12.13;;;;;;;;;;5130994;28;20011;-67
2023/10/18 11:46:08;;;;;;;18.92;12.75;;;;;;;;;;5117138;28;20370;-66
2023/10/18 11:48:35;;;;;;;16.87;12.77;;;;;;;;;;5127845;28;20024;-67
2023/10/18 11:51:08;;;;;;;21.50;12.65;;;;;;;;;;5126883;28;20330;-66
2023/10/18 11:53:35;;;;;;;19.08;12.57;;;;;;;;;;5121969;28;20020;-67
2023/10/18 11:56:02;;;;;;;17.02;12.95;;;;;;;;;;5125888;27;20110;-65
2023/10/18 11:58:29;;;;;;;17.73;12.57;;;;;;;;;;5134277;27;20015;-65
2023/10/18 12:00:58;;;;;;;18.23;11.95;;;;;;;;;;5134731;27;20047;-65
2023/10/18 12:03:27;;;;;;;18.48;11.32;;;;;;;;;;5134443;27;20021;-66
2023/10/18 12:05:54;;;;;;;13.18;10.30;;;;;;;;;;5133743;27;20054;-65
2023/10/18 12:08:23;;;;;;;12.13;8.80;;;;;;;;;;5125325;27;20366;-66
2023/10/18 12:10:49;;;;;;;11.02;9.18;;;;;;;;;;5130309;27;20019;-66
2023/10/18 12:13:17;;;;;;;11.70;9.32;;;;;;;;;;5134479;27;20023;-65
2023/10/18 12:15:43;;;;;;;14.48;8.98;;;;;;;;;;5133563;27;20042;-66
2023/10/18 12:18:10;;;;;;;13.75;9.00;;;;;;;;;;5134353;27;20011;-65
2023/10/18 12:20:36;;;;;;;11.05;8.40;;;;;;;;;;5133860;27;20011;-66
2023/10/18 12:23:21;;;;;;;11.50;8.40;;;;;;;;;;5130354;27;20344;-66
2023/10/18 12:25:47;;;;;;;9.68;7.43;;;;;;;;;;5131154;27;20027;-66
2023/10/18 12:28:17;;;;;;;7.85;6.32;;;;;;;;;;5134057;27;20064;-65
2023/10/18 12:30:44;;;;;;;10.57;7.22;;;;;;;;;;5126232;27;20023;-66
2023/10/18 12:33:23;;;;;;;9.25;7.22;;;;;;;;;;5126493;27;20015;-66
2023/10/18 12:35:51;;;;;;;14.43;8.90;;;;;;;;;;5134467;27;20034;-66
2023/10/18 12:38:30;;;;;;;10.95;8.05;;;;;;;;;;5134540;27;20245;-66
2023/10/18 12:41:01;;;;;;;10.70;7.28;;;;;;;;;;5134224;27;20016;-66
2023/10/18 12:43:31;;;;;;;12.93;7.80;;;;;;;;;;5133982;27;20075;-66
2023/10/18 12:45:57;;;;;;;12.05;7.55;;;;;;;;;;5125743;27;20024;-65
2023/10/18 12:48:23;;;;;;;10.43;6.82;;;;;;;;;;5133785;27;20015;-65
2023/10/18 12:50:50;;;;;;;9.45;7.63;;;;;;;;;;5133406;27;20023;-66
2023/10/18 12:53:31;;;;;;;9.15;6.68;;;;;;;;;;5131175;27;20057;-65
2023/10/18 12:58:59;;;;;;;11.65;7.13;;;;;;;;;;5058461;28;19905;-66
2023/10/18 13:04:07;;;;;;;10.02;6.72;;;;;;;;;;5127531;27;20023;-66
2023/10/18 13:06:43;;;;;;;14.00;6.73;;;;;;;;;;5132931;27;20050;-67
2023/10/18 13:09:16;;;;;;;8.75;6.50;;;;;;;;;;5133339;27;20253;-66
2023/10/18 13:12:12;;;;;;;13.38;5.93;;;;;;;;;;5130777;27;20042;-66
2023/10/18 13:14:34;;;;;;;7.63;5.35;;;;;;;;;;5132062;27;20477;-67
2023/10/18 13:17:03;;;;;;;13.10;5.47;;;;;;;;;;5133430;27;20075;-66
2023/10/18 13:19:29;;;;;;;8.57;5.28;;;;;;;;;;5133925;27;20011;-66
2023/10/18 13:21:55;;;;;;;7.85;5.82;;;;;;;;;;5132437;27;20020;-66
2023/10/18 13:26:54;;;;;;;9.15;4.63;;;;;;;;;;5131387;27;20121;-66
2023/10/18 13:31:50;;;;;;;5.65;3.88;;;;;;;;;;5131712;27;20027;-65
2023/10/18 13:34:19;;;;;;;6.10;4.53;;;;;;;;;;5132697;27;20023;-66
2023/10/18 13:36:45;;;;;;;6.55;4.35;;;;;;;;;;5132244;27;20134;-66
2023/10/18 13:39:12;;;;;;;8.65;4.85;;;;;;;;;;5132756;27;20355;-66
2023/10/18 13:41:39;;;;;;;7.57;5.00;;;;;;;;;;5132421;27;20023;-66
2023/10/18 13:44:05;;;;;;;9.75;4.50;;;;;;;;;;5133191;27;20060;-66
2023/10/18 13:46:31;;;;;;;5.85;4.07;;;;;;;;;;5132514;27;20034;-67
2023/10/18 13:48:57;;;;;;;5.80;4.28;;;;;;;;;;5132444;27;20026;-66
2023/10/18 13:51:23;;;;;;;10.27;4.60;;;;;;;;;;5132856;27;20096;-67
2023/10/18 13:53:52;;;;;;;5.95;3.85;;;;;;;;;;5131921;27;20027;-66
2023/10/18 13:56:21;;;;;;;8.98;4.57;;;;;;;;;;5129878;27;20053;-66
2023/10/18 13:58:47;;;;;;;7.88;3.50;;;;;;;;;;5131796;27;20025;-65
2023/10/18 14:01:16;;;;;;;5.05;4.03;;;;;;;;;;5132754;27;20023;-64
2023/10/18 14:03:43;;;;;;;7.93;3.83;;;;;;;;;;5131862;27;20023;-65
2023/10/18 14:06:10;;;;;;;6.93;4.03;;;;;;;;;;5132716;27;20105;-64
2023/10/18 14:08:36;;;;;;;7.05;3.60;;;;;;;;;;5131451;27;20030;-66
2023/10/18 14:11:04;;;;;;;12.07;5.10;;;;;;;;;;5127077;27;20439;-65
2023/10/18 14:13:31;;;;;;;8.13;5.15;;;;;;;;;;5122849;27;20362;-65
2023/10/18 14:15:57;;;;;;;6.70;5.07;;;;;;;;;;5122632;27;20482;-65
2023/10/18 14:18:25;;;;;;;8.20;4.63;;;;;;;;;;5130640;27;20448;-65
2023/10/18 14:20:52;;;;;;;7.38;5.45;;;;;;;;;;5126624;27;20094;-66
2023/10/18 14:23:27;;;;;;;5.55;4.40;;;;;;;;;;5130125;27;20054;-66
2023/10/18 14:25:53;;;;;;;7.20;5.40;;;;;;;;;;5127381;27;20507;-65
2023/10/18 14:28:19;;;;;;;6.40;4.65;;;;;;;;;;5128528;27;20046;-66
2023/10/18 14:30:46;;;;;;;8.00;5.05;;;;;;;;;;5127446;27;20411;-66
2023/10/18 14:33:12;;;;;;;7.00;5.57;;;;;;;;;;5124126;27;20022;-65
2023/10/18 14:35:38;;;;;;;10.70;5.50;;;;;;;;;;5129857;27;20023;-64
2023/10/18 14:38:08;;;;;;;7.97;4.85;;;;;;;;;;5130347;27;20015;-67
2023/10/18 14:40:34;;;;;;;10.05;5.80;;;;;;;;;;5128733;27;20032;-71
2023/10/18 14:43:03;;;;;;;10.68;7.05;;;;;;;;;;5127069;27;20466;-68
2023/10/18 14:45:32;;;;;;;9.07;6.82;;;;;;;;;;5129161;27;20023;-68
2023/10/18 14:47:58;;;;;;;13.50;7.25;;;;;;;;;;5130080;27;20099;-68
2023/10/18 14:50:27;;;;;;;13.43;9.07;;;;;;;;;;5130607;27;20007;-71
2023/10/18 14:52:53;;;;;;;12.68;8.68;;;;;;;;;;5125684;27;20023;-67
2023/10/18 14:55:19;;;;;;;9.85;8.05;;;;;;;;;;5131280;27;20023;-66
2023/10/18 14:57:45;;;;;;;11.50;8.80;;;;;;;;;;5127947;27;20023;-65
2023/10/18 15:00:11;;;;;;;14.77;9.90;;;;;;;;;;5132286;27;20015;-69
2023/10/18 15:02:39;;;;;;;13.05;9.95;;;;;;;;;;5130409;27;20038;-65
2023/10/18 15:05:09;;;;;;;14.43;9.55;;;;;;;;;;5132250;27;20029;-67
2023/10/18 15:07:37;;;;;;;13.07;9.80;;;11.90;99.90;;;;;;5129434;27;20493;-66
2023/10/18 15:10:06;;;;;;;12.93;9.75;;;11.80;99.90;;;;;;5131922;27;20019;-69
2023/10/18 15:12:32;;;;;;;12.38;10.20;;;11.70;99.90;;;;;;5128544;27;20110;-67